WXM80 ListenWXM80 Stop

You find our weather info also at:

UK Metoffice

WeatherCloud

Weather Underground

Northeastern Weather Network

AWEKAS

Citizen Weather Observer Program (CWOP)

HAMweather, WeatherForYou, PWS Weather


Weather Underground History page Text

Daily Summary for December 5, 2017 Units:  English    Metric   Both
« Previous Day
Next Day »
Daily Weekly Monthly Yearly Custom
  High: Low: Average:
Temperature: 61.4 °F 43.1 °F 54.4 °F
Dew Point: 58.5 °F 39.3 °F 51.1 °F
Humidity: 96 % 82 % 89 %
Wind Speed: 13.9 mph 0.0 mph 5.4 mph
Wind Gust: 24.0 mph - -
Wind:- - South
Pressure: 30.41 in 29.80 in -
Precipitation: 0.04 in    
Historical Graphs
 
 
Tabular Data for December 5, 2017
Time Temperature Dew Point Pressure Wind Wind Speed Wind Gust Humidity Rainfall Rate (Hourly)
00:01 44.0 °F 39.5 °F 30.41 in Calm   1.2 mph 84 % 0.00 in
00:11 44.0 °F 39.5 °F 30.41 in Calm   1.2 mph 84 % 0.00 in
00:17 44.0 °F 39.5 °F 30.40 in Calm     84 % 0.00 in
00:22 44.0 °F 39.5 °F 30.41 in Calm     84 % 0.00 in
00:27 43.9 °F 39.4 °F 30.41 in Calm     84 % 0.00 in
00:32 43.9 °F 39.4 °F 30.40 in SE 0.3 mph 1.2 mph 84 % 0.00 in
00:37 43.9 °F 39.4 °F 30.40 in Calm   1.2 mph 84 % 0.00 in
00:42 43.9 °F 39.4 °F 30.40 in Calm     84 % 0.00 in
00:47 43.8 °F 39.3 °F 30.40 in Calm     84 % 0.00 in
00:52 43.8 °F 39.3 °F 30.40 in SE 0.1 mph 1.2 mph 84 % 0.00 in
00:57 43.7 °F 39.5 °F 30.39 in SE 0.8 mph 2.3 mph 85 % 0.00 in
01:02 43.6 °F 39.4 °F 30.39 in SE 2.7 mph 4.0 mph 85 % 0.00 in
01:07 43.5 °F 39.3 °F 30.39 in SE 1.9 mph 3.5 mph 85 % 0.00 in
01:12 43.5 °F 39.3 °F 30.39 in SE 1.9 mph 3.5 mph 85 % 0.00 in
01:22 43.5 °F 39.6 °F 30.39 in SE 1.0 mph 3.5 mph 86 % 0.00 in
01:27 43.6 °F 39.7 °F 30.39 in SE 1.1 mph 3.5 mph 86 % 0.00 in
01:32 43.6 °F 39.7 °F 30.39 in SE 1.4 mph 3.5 mph 86 % 0.00 in
01:37 43.7 °F 39.8 °F 30.39 in SE 1.5 mph 3.5 mph 86 % 0.00 in
01:42 43.8 °F 39.9 °F 30.38 in SE 0.1 mph 1.2 mph 86 % 0.00 in
01:47 43.8 °F 39.9 °F 30.38 in Calm     86 % 0.00 in
01:53 43.9 °F 40.0 °F 30.39 in Calm     86 % 0.00 in
01:58 44.0 °F 40.1 °F 30.39 in Calm     86 % 0.00 in
02:03 44.0 °F 40.1 °F 30.39 in Calm     86 % 0.00 in
02:08 44.0 °F 40.1 °F 30.39 in Calm     86 % 0.00 in
02:13 44.0 °F 40.1 °F 30.38 in Calm     86 % 0.00 in
02:18 44.0 °F 40.1 °F 30.38 in Calm     86 % 0.00 in
02:23 43.9 °F 39.7 °F 30.38 in Calm     85 % 0.00 in
02:28 43.8 °F 39.6 °F 30.37 in Calm     85 % 0.00 in
02:33 43.8 °F 39.9 °F 30.37 in Calm     86 % 0.00 in
02:38 43.6 °F 39.7 °F 30.36 in Calm     86 % 0.00 in
02:43 43.5 °F 39.6 °F 30.36 in Calm     86 % 0.00 in
02:48 43.4 °F 39.5 °F 30.35 in Calm     86 % 0.00 in
02:53 43.3 °F 39.4 °F 30.35 in Calm     86 % 0.00 in
02:58 43.2 °F 39.6 °F 30.35 in Calm   1.2 mph 87 % 0.00 in
02:59 43.2 °F 39.6 °F 30.35 in Calm     87 % 0.00 in
03:04 43.2 °F 39.6 °F 30.35 in SE 0.1 mph 1.2 mph 87 % 0.00 in
03:09 43.1 °F 39.8 °F 30.35 in SE 0.6 mph 1.2 mph 88 % 0.00 in
03:15 43.1 °F 39.8 °F 30.35 in SE 0.1 mph 2.3 mph 88 % 0.00 in
03:20 43.1 °F 39.8 °F 30.35 in Calm     88 % 0.00 in
03:25 43.2 °F 40.2 °F 30.35 in Calm     89 % 0.00 in
03:30 43.2 °F 40.2 °F 30.34 in SE 0.6 mph 2.3 mph 89 % 0.00 in
03:35 43.3 °F 40.6 °F 30.34 in SE 0.1 mph 1.2 mph 90 % 0.00 in
03:40 43.4 °F 40.7 °F 30.34 in SE 0.9 mph 3.5 mph 90 % 0.00 in
03:45 43.6 °F 40.9 °F 30.34 in SE 1.4 mph 2.3 mph 90 % 0.00 in
03:50 43.9 °F 41.4 °F 30.33 in SE 1.7 mph 3.5 mph 91 % 0.00 in
03:55 44.5 °F 42.0 °F 30.33 in SE 2.5 mph 4.6 mph 91 % 0.00 in
04:00 44.8 °F 42.3 °F 30.33 in SE 2.0 mph 4.0 mph 91 % 0.00 in
04:10 45.8 °F 42.7 °F 30.33 in SSE 2.1 mph 6.9 mph 89 % 0.00 in
04:15 46.3 °F 43.2 °F 30.33 in SSE 0.1 mph 2.3 mph 89 % 0.00 in
04:20 46.7 °F 43.3 °F 30.33 in SSE 2.5 mph 6.9 mph 88 % 0.00 in
04:25 47.1 °F 43.4 °F 30.33 in SSE 1.6 mph 3.5 mph 87 % 0.00 in
04:30 47.6 °F 43.6 °F 30.32 in SSE 2.2 mph 5.8 mph 86 % 0.00 in
04:35 48.1 °F 43.8 °F 30.32 in SSE 2.6 mph 6.9 mph 85 % 0.00 in
04:40 48.4 °F 43.8 °F 30.32 in SSE 2.3 mph 6.9 mph 84 % 0.00 in
04:45 48.7 °F 44.1 °F 30.32 in SSE 5.3 mph 9.2 mph 84 % 0.00 in
04:50 48.9 °F 44.0 °F 30.32 in SE 1.9 mph 3.5 mph 83 % 0.00 in
04:55 49.0 °F 44.1 °F 30.32 in SSE 2.9 mph 3.5 mph 83 % 0.00 in
05:00 49.0 °F 44.1 °F 30.32 in SSE 5.7 mph 8.1 mph 83 % 0.00 in
05:05 49.1 °F 44.2 °F 30.32 in SSE 2.7 mph 3.5 mph 83 % 0.00 in
05:10 49.2 °F 44.3 °F 30.32 in SSE 2.6 mph 4.6 mph 83 % 0.00 in
05:11 49.2 °F 44.3 °F 30.32 in SSE 2.0 mph 6.0 mph 83 % 0.00 in
05:15 49.3 °F 44.0 °F 30.31 in SSE 2.0 mph 5.0 mph 82 % 0.00 in
05:21 49.4 °F 44.1 °F 30.31 in SSE 6.0 mph 8.0 mph 82 % 0.00 in
05:26 49.4 °F 44.1 °F 30.31 in SE 2.8 mph 5.8 mph 82 % 0.00 in
05:31 49.4 °F 44.1 °F 30.31 in SE 1.4 mph 3.5 mph 82 % 0.00 in
05:36 49.4 °F 44.1 °F 30.31 in SSE 4.6 mph 8.1 mph 82 % 0.00 in
05:46 49.4 °F 44.1 °F 30.31 in SE 2.2 mph 4.6 mph 82 % 0.00 in
05:56 49.4 °F 44.1 °F 30.30 in SSE 5.0 mph 10.0 mph 82 % 0.00 in
06:01 49.5 °F 44.2 °F 30.30 in SSE 3.5 mph 6.9 mph 82 % 0.00 in
06:06 49.7 °F 44.7 °F 30.29 in SSE 4.7 mph 8.1 mph 83 % 0.00 in
06:11 49.8 °F 44.8 °F 30.30 in SE 5.7 mph 6.9 mph 83 % 0.00 in
06:12 49.8 °F 44.8 °F 30.30 in SE 4.3 mph 11.5 mph 83 % 0.00 in
06:17 50.0 °F 44.7 °F 30.30 in ESE 5.1 mph 8.0 mph 82 % 0.00 in
06:22 50.1 °F 44.8 °F 30.29 in SSE 3.9 mph 6.9 mph 82 % 0.00 in
06:27 50.3 °F 45.3 °F 30.29 in SSE 3.8 mph 9.0 mph 83 % 0.00 in
06:32 50.5 °F 45.5 °F 30.29 in SE 2.2 mph 5.8 mph 83 % 0.00 in
06:37 50.6 °F 45.6 °F 30.29 in SE 3.8 mph 4.6 mph 83 % 0.00 in
06:42 50.6 °F 45.6 °F 30.29 in South 2.4 mph 3.5 mph 83 % 0.00 in
06:47 50.7 °F 45.7 °F 30.29 in SSE 2.2 mph 4.0 mph 83 % 0.00 in
06:52 50.8 °F 45.8 °F 30.29 in SSE 5.0 mph 10.4 mph 83 % 0.00 in
06:57 51.0 °F 46.0 °F 30.29 in SSE 5.0 mph 11.5 mph 83 % 0.00 in
07:02 51.2 °F 46.2 °F 30.30 in SSE 5.5 mph 11.5 mph 83 % 0.00 in
07:07 51.4 °F 46.4 °F 30.29 in South 6.2 mph 9.2 mph 83 % 0.00 in
07:12 51.5 °F 46.5 °F 30.28 in South 6.8 mph 6.9 mph 83 % 0.00 in
07:17 51.6 °F 46.6 °F 30.29 in SE 8.5 mph 19.6 mph 83 % 0.00 in
07:22 51.7 °F 46.7 °F 30.29 in South 4.5 mph 11.5 mph 83 % 0.00 in
07:28 51.7 °F 46.7 °F 30.29 in SE 6.5 mph 8.1 mph 83 % 0.00 in
07:38 51.7 °F 46.7 °F 30.27 in South 9.5 mph 16.1 mph 83 % 0.00 in
07:48 51.8 °F 47.1 °F 30.28 in SSE 4.3 mph 11.5 mph 84 % 0.00 in
07:53 51.9 °F 47.2 °F 30.28 in SSE 4.1 mph 11.5 mph 84 % 0.00 in
07:58 52.0 °F 47.3 °F 30.28 in South 7.0 mph 11.5 mph 84 % 0.00 in
08:03 52.1 °F 47.4 °F 30.27 in SE 3.9 mph 8.1 mph 84 % 0.00 in
08:08 52.2 °F 47.5 °F 30.27 in SSE 6.6 mph 11.5 mph 84 % 0.00 in
08:13 52.3 °F 47.9 °F 30.27 in SSE 8.1 mph 12.7 mph 85 % 0.00 in
08:18 52.3 °F 47.9 °F 30.27 in SE 11.1 mph 18.4 mph 85 % 0.00 in
08:23 52.4 °F 47.7 °F 30.26 in SE 9.4 mph 15.0 mph 84 % 0.00 in
08:28 52.5 °F 48.1 °F 30.26 in SSE 6.7 mph 12.7 mph 85 % 0.00 in
08:33 52.6 °F 48.2 °F 30.26 in SSE 5.2 mph 12.0 mph 85 % 0.00 in
08:38 52.7 °F 48.0 °F 30.25 in South 7.9 mph 13.8 mph 84 % 0.00 in
08:43 52.8 °F 48.1 °F 30.26 in SE 6.8 mph 12.7 mph 84 % 0.00 in
08:48 52.9 °F 48.2 °F 30.26 in SSE 9.6 mph 15.0 mph 84 % 0.00 in
08:53 52.9 °F 48.5 °F 30.26 in South 7.7 mph 11.5 mph 85 % 0.00 in
08:58 52.9 °F 48.8 °F 30.26 in SSW 7.5 mph 11.5 mph 86 % 0.00 in
09:03 52.9 °F 48.8 °F 30.26 in SSE 5.3 mph 10.4 mph 86 % 0.00 in
09:08 52.9 °F 48.8 °F 30.25 in South 4.5 mph 9.2 mph 86 % 0.00 in
09:13 53.0 °F 48.9 °F 30.25 in SE 8.2 mph 13.0 mph 86 % 0.00 in
09:18 53.1 °F 49.0 °F 30.24 in SE 4.3 mph 12.7 mph 86 % 0.00 in
09:23 53.2 °F 49.1 °F 30.24 in South 8.1 mph 11.5 mph 86 % 0.00 in
09:28 53.3 °F 49.2 °F 30.24 in SE 6.9 mph 6.9 mph 86 % 0.00 in
09:33 53.4 °F 49.6 °F 30.23 in SSE 4.5 mph 11.5 mph 87 % 0.00 in
09:38 53.5 °F 49.7 °F 30.23 in SSE 5.5 mph 11.0 mph 87 % 0.00 in
09:43 53.6 °F 49.8 °F 30.24 in SSE 4.2 mph 7.0 mph 87 % 0.00 in
09:48 53.6 °F 49.8 °F 30.23 in South 3.1 mph 6.0 mph 87 % 0.00 in
09:53 53.7 °F 49.9 °F 30.23 in SSE 4.8 mph 11.5 mph 87 % 0.00 in
09:58 53.8 °F 50.3 °F 30.22 in SE 7.7 mph 11.5 mph 88 % 0.00 in
10:13 54.2 °F 50.7 °F 30.22 in SSE 9.4 mph 17.3 mph 88 % 0.00 in
10:18 54.4 °F 50.9 °F 30.22 in South 3.4 mph 8.1 mph 88 % 0.00 in
10:23 54.7 °F 51.2 °F 30.21 in South 9.7 mph 18.4 mph 88 % 0.00 in
10:28 55.0 °F 51.2 °F 30.21 in SE 5.6 mph 11.5 mph 87 % 0.00 in
10:33 55.1 °F 51.3 °F 30.20 in SSE 7.6 mph 14.0 mph 87 % 0.00 in
10:39 55.3 °F 51.5 °F 30.20 in SSW 6.7 mph 12.0 mph 87 % 0.00 in
10:44 55.5 °F 51.7 °F 30.19 in SSW 6.8 mph 12.7 mph 87 % 0.00 in
10:49 55.6 °F 51.8 °F 30.19 in SSE 7.0 mph 16.1 mph 87 % 0.00 in
10:54 55.5 °F 52.0 °F 30.18 in South 8.1 mph 12.0 mph 88 % 0.00 in
10:59 55.5 °F 52.3 °F 30.18 in South 7.5 mph 16.1 mph 89 % 0.00 in
11:04 55.6 °F 52.4 °F 30.17 in SSE 6.8 mph 12.7 mph 89 % 0.00 in
11:09 55.6 °F 52.4 °F 30.17 in SE 5.5 mph 18.4 mph 89 % 0.00 in
11:14 55.7 °F 52.5 °F 30.17 in South 7.8 mph 15.0 mph 89 % 0.00 in
11:19 55.7 °F 52.5 °F 30.16 in South 8.2 mph 16.1 mph 89 % 0.00 in
11:24 55.8 °F 52.9 °F 30.16 in SSE 8.0 mph 11.5 mph 90 % 0.00 in
11:29 55.8 °F 52.9 °F 30.16 in SE 6.8 mph 11.0 mph 90 % 0.00 in
11:34 55.9 °F 53.0 °F 30.15 in South 2.8 mph 7.0 mph 90 % 0.00 in
11:39 55.9 °F 53.0 °F 30.15 in SSW 8.3 mph 11.5 mph 90 % 0.00 in
11:44 55.9 °F 53.0 °F 30.15 in SSE 11.7 mph 18.4 mph 90 % 0.00 in
11:49 55.9 °F 53.3 °F 30.14 in SSE 6.1 mph 11.5 mph 91 % 0.00 in
11:54 55.9 °F 53.3 °F 30.14 in SSW 6.2 mph 10.0 mph 91 % 0.00 in
11:59 55.9 °F 53.3 °F 30.13 in South 6.6 mph 12.7 mph 91 % 0.00 in
12:04 56.1 °F 53.5 °F 30.13 in SE 4.2 mph 14.0 mph 91 % 0.00 in
12:09 56.2 °F 53.6 °F 30.14 in South 6.8 mph 8.1 mph 91 % 0.00 in
12:14 56.3 °F 53.7 °F 30.13 in South 5.3 mph 10.4 mph 91 % 0.00 in
12:19 56.4 °F 53.8 °F 30.13 in SSE 5.5 mph 11.5 mph 91 % 0.00 in
12:24 56.6 °F 54.0 °F 30.13 in SSW 4.7 mph 9.2 mph 91 % 0.00 in
12:29 56.8 °F 54.2 °F 30.12 in South 4.7 mph 9.2 mph 91 % 0.00 in
12:34 57.1 °F 54.5 °F 30.12 in South 4.0 mph 8.1 mph 91 % 0.00 in
12:39 57.4 °F 54.8 °F 30.12 in SSW 3.2 mph 8.1 mph 91 % 0.00 in
12:45 57.7 °F 54.8 °F 30.11 in South 5.5 mph 11.5 mph 90 % 0.00 in
12:50 58.0 °F 55.1 °F 30.10 in SSE 7.8 mph 10.4 mph 90 % 0.00 in
12:55 58.3 °F 55.1 °F 30.09 in SSW 5.5 mph 11.5 mph 89 % 0.00 in
13:00 58.5 °F 55.3 °F 30.09 in SSE 6.7 mph 15.0 mph 89 % 0.00 in
13:05 58.8 °F 55.6 °F 30.09 in South 5.8 mph 15.0 mph 89 % 0.00 in
13:10 59.1 °F 55.5 °F 30.08 in SSW 4.6 mph 11.5 mph 88 % 0.00 in
13:15 59.3 °F 55.7 °F 30.07 in South 5.0 mph 11.5 mph 88 % 0.00 in
13:20 59.6 °F 55.7 °F 30.07 in South 4.4 mph 8.1 mph 87 % 0.00 in
13:25 59.9 °F 56.0 °F 30.07 in SSW 9.8 mph 17.3 mph 87 % 0.00 in
13:30 60.2 °F 56.0 °F 30.07 in South 5.8 mph 9.0 mph 86 % 0.00 in
13:35 60.4 °F 56.2 °F 30.07 in South 6.0 mph 11.5 mph 86 % 0.00 in
13:40 60.6 °F 56.1 °F 30.05 in South 4.5 mph 10.4 mph 85 % 0.00 in
13:45 60.7 °F 56.2 °F 30.05 in South 8.3 mph 15.0 mph 85 % 0.00 in
13:50 60.9 °F 56.4 °F 30.05 in SSW 8.6 mph 16.0 mph 85 % 0.00 in
13:55 61.0 °F 56.5 °F 30.04 in SSW 9.5 mph 16.0 mph 85 % 0.00 in
14:00 61.1 °F 56.2 °F 30.04 in South 4.0 mph 11.5 mph 84 % 0.00 in
14:05 61.2 °F 56.3 °F 30.04 in South 11.5 mph 20.0 mph 84 % 0.00 in
14:10 61.3 °F 56.4 °F 30.04 in SSE 5.8 mph 9.2 mph 84 % 0.00 in
14:15 61.3 °F 56.4 °F 30.04 in South 6.4 mph 12.0 mph 84 % 0.00 in
14:20 61.3 °F 56.4 °F 30.03 in SSE 7.1 mph 15.0 mph 84 % 0.00 in
14:30 61.4 °F 56.5 °F 30.04 in SSE 7.0 mph 12.7 mph 84 % 0.00 in
14:35 61.4 °F 56.5 °F 30.04 in SSW 7.3 mph 9.2 mph 84 % 0.00 in
14:40 61.4 °F 56.5 °F 30.04 in South 9.7 mph 14.0 mph 84 % 0.00 in
14:45 61.4 °F 56.5 °F 30.04 in South 6.9 mph 11.5 mph 84 % 0.00 in
14:50 61.4 °F 56.5 °F 30.04 in South 8.1 mph 24.0 mph 84 % 0.00 in
14:55 61.3 °F 56.4 °F 30.04 in SSW 9.1 mph 13.8 mph 84 % 0.00 in
15:00 61.2 °F 56.7 °F 30.04 in SW 6.9 mph 17.3 mph 85 % 0.00 in
15:05 61.2 °F 56.7 °F 30.03 in South 4.7 mph 15.0 mph 85 % 0.00 in
15:15 61.1 °F 56.6 °F 30.03 in SSE 8.9 mph 13.8 mph 85 % 0.00 in
15:20 61.0 °F 56.5 °F 30.02 in SSW 6.6 mph 16.1 mph 85 % 0.00 in
15:25 60.9 °F 56.7 °F 30.03 in South 8.1 mph 11.5 mph 86 % 0.00 in
15:31 60.8 °F 56.6 °F 30.03 in South 7.3 mph 17.3 mph 86 % 0.00 in
15:36 60.7 °F 56.5 °F 30.03 in SSW 8.8 mph 11.5 mph 86 % 0.00 in
15:41 60.6 °F 56.4 °F 30.02 in SSW 7.0 mph 12.0 mph 86 % 0.00 in
15:51 60.4 °F 56.5 °F 30.02 in SW 9.5 mph 13.8 mph 87 % 0.00 in
15:56 60.3 °F 56.4 °F 30.02 in SSW 6.0 mph 15.0 mph 87 % 0.00 in
16:01 60.3 °F 56.4 °F 30.02 in SSW 5.9 mph 13.0 mph 87 % 0.00 in
16:06 60.2 °F 56.3 °F 30.02 in South 9.5 mph 14.0 mph 87 % 0.00 in
16:11 60.1 °F 56.5 °F 30.01 in South 9.0 mph 15.0 mph 88 % 0.00 in
16:16 60.1 °F 56.5 °F 30.01 in South 7.0 mph 16.0 mph 88 % 0.00 in
16:21 60.0 °F 56.4 °F 30.01 in South 6.0 mph 15.0 mph 88 % 0.00 in
16:26 59.9 °F 56.3 °F 30.00 in SSW 7.0 mph 20.0 mph 88 % 0.00 in
16:31 59.8 °F 56.2 °F 30.00 in SSW 7.0 mph 16.0 mph 88 % 0.00 in
16:36 59.7 °F 56.5 °F 30.00 in South 8.0 mph 13.0 mph 89 % 0.00 in
16:41 59.6 °F 56.4 °F 30.00 in South 7.0 mph 16.0 mph 89 % 0.00 in
16:46 59.5 °F 56.3 °F 30.00 in South 8.0 mph 18.0 mph 89 % 0.00 in
16:51 59.5 °F 56.6 °F 30.00 in South 6.0 mph 15.0 mph 90 % 0.00 in
16:56 59.5 °F 56.6 °F 29.99 in South 8.0 mph 16.0 mph 90 % 0.00 in
17:01 59.6 °F 57.0 °F 30.00 in SSW 8.8 mph 12.7 mph 91 % 0.00 in
17:06 59.6 °F 57.0 °F 30.00 in South 5.3 mph 13.8 mph 91 % 0.00 in
17:11 59.5 °F 57.2 °F 30.00 in SSW 8.3 mph 9.2 mph 92 % 0.00 in
17:16 59.5 °F 57.2 °F 29.99 in SW 5.0 mph 12.7 mph 92 % 0.00 in
17:21 59.5 °F 57.2 °F 30.00 in SSW 6.3 mph 12.7 mph 92 % 0.00 in
17:26 59.5 °F 57.2 °F 29.99 in South 4.7 mph 10.4 mph 92 % 0.00 in
17:31 59.5 °F 57.5 °F 29.98 in South 7.1 mph 11.5 mph 93 % 0.00 in
17:36 59.5 °F 57.5 °F 29.98 in South 6.8 mph 11.5 mph 93 % 0.00 in
17:41 59.4 °F 57.4 °F 29.97 in South 7.2 mph 13.8 mph 93 % 0.00 in
17:46 59.4 °F 57.4 °F 29.97 in SSW 6.1 mph 10.4 mph 93 % 0.00 in
17:51 59.4 °F 57.4 °F 29.96 in SSW 11.2 mph 19.6 mph 93 % 0.00 in
17:56 59.4 °F 57.4 °F 29.96 in SSW 7.5 mph 17.3 mph 93 % 0.00 in
18:01 59.4 °F 57.4 °F 29.96 in SSW 7.7 mph 11.5 mph 93 % 0.00 in
18:06 59.4 °F 57.4 °F 29.96 in South 5.7 mph 9.0 mph 93 % 0.00 in
18:11 59.4 °F 57.4 °F 29.95 in SSW 6.9 mph 13.8 mph 93 % 0.00 in
18:16 59.4 °F 57.4 °F 29.95 in South 9.1 mph 15.0 mph 93 % 0.00 in
18:21 59.4 °F 57.7 °F 29.95 in SSW 6.8 mph 15.0 mph 94 % 0.00 in
18:26 59.4 °F 57.7 °F 29.95 in SSW 8.7 mph 18.4 mph 94 % 0.00 in
18:31 59.5 °F 57.8 °F 29.94 in South 8.3 mph 17.3 mph 94 % 0.00 in
18:36 59.6 °F 57.9 °F 29.95 in SSW 10.4 mph 19.6 mph 94 % 0.00 in
18:41 59.7 °F 58.0 °F 29.94 in South 13.9 mph 23.0 mph 94 % 0.00 in
18:46 59.8 °F 58.1 °F 29.94 in South 6.1 mph 13.8 mph 94 % 0.00 in
18:51 59.9 °F 58.2 °F 29.93 in SSW 7.7 mph 10.4 mph 94 % 0.00 in
18:56 59.9 °F 57.9 °F 29.93 in South 5.5 mph 9.0 mph 93 % 0.00 in
19:02 59.9 °F 57.9 °F 29.93 in South 10.0 mph 15.0 mph 93 % 0.00 in
19:07 59.9 °F 57.9 °F 29.93 in SSW 5.6 mph 11.5 mph 93 % 0.00 in
19:12 60.0 °F 58.0 °F 29.92 in SSW 7.8 mph 12.7 mph 93 % 0.00 in
19:17 60.0 °F 58.0 °F 29.92 in South 6.7 mph 11.5 mph 93 % 0.00 in
19:22 60.0 °F 58.0 °F 29.92 in SW 8.3 mph 11.5 mph 93 % 0.00 in
19:27 60.0 °F 58.0 °F 29.92 in SW 8.5 mph 15.0 mph 93 % 0.00 in
19:32 60.0 °F 58.0 °F 29.92 in SSW 7.5 mph 17.3 mph 93 % 0.00 in
19:37 60.1 °F 58.1 °F 29.91 in SSW 9.6 mph 16.1 mph 93 % 0.00 in
19:42 60.1 °F 58.1 °F 29.92 in SSW 4.7 mph 9.2 mph 93 % 0.00 in
19:47 60.2 °F 58.2 °F 29.91 in South 9.2 mph 15.0 mph 93 % 0.00 in
19:48 60.2 °F 58.2 °F 29.91 in SSW 9.4 mph 15.0 mph 93 % 0.00 in
19:53 60.2 °F 58.2 °F 29.91 in SW 5.8 mph 10.4 mph 93 % 0.00 in
19:58 60.2 °F 58.2 °F 29.90 in SSE 10.4 mph 16.1 mph 93 % 0.00 in
20:03 60.2 °F 58.2 °F 29.91 in South 9.0 mph 14.0 mph 93 % 0.00 in
20:08 60.2 °F 58.2 °F 29.90 in SSE 11.4 mph 20.7 mph 93 % 0.00 in
20:13 60.2 °F 58.2 °F 29.90 in South 11.2 mph 17.3 mph 93 % 0.00 in
20:18 60.2 °F 58.2 °F 29.90 in SSW 11.0 mph 19.6 mph 93 % 0.00 in
20:23 60.2 °F 58.2 °F 29.89 in SSE 8.2 mph 17.3 mph 93 % 0.00 in
20:28 60.2 °F 58.2 °F 29.88 in South 7.0 mph 11.5 mph 93 % 0.00 in
20:33 60.2 °F 58.2 °F 29.89 in SSW 11.9 mph 19.6 mph 93 % 0.00 in
20:38 60.2 °F 58.2 °F 29.88 in SSW 5.6 mph 12.7 mph 93 % 0.00 in
20:43 60.2 °F 58.5 °F 29.88 in South 7.7 mph 23.0 mph 94 % 0.00 in
20:48 60.1 °F 58.4 °F 29.88 in SSW 5.5 mph 9.0 mph 94 % 0.00 in
20:53 60.1 °F 58.4 °F 29.87 in South 10.9 mph 20.7 mph 94 % 0.00 in
20:58 60.0 °F 58.3 °F 29.87 in SSW 9.4 mph 19.0 mph 94 % 0.00 in
21:03 60.0 °F 58.3 °F 29.88 in SSW 6.5 mph 17.3 mph 94 % 0.00 in
21:08 59.9 °F 58.2 °F 29.87 in South 7.3 mph 18.4 mph 94 % 0.00 in
21:13 59.8 °F 58.1 °F 29.87 in SSW 12.7 mph 23.0 mph 94 % 0.00 in
21:18 59.8 °F 58.1 °F 29.87 in SSW 10.6 mph 19.6 mph 94 % 0.00 in
21:23 59.6 °F 57.9 °F 29.87 in SSW 9.2 mph 16.1 mph 94 % 0.00 in
21:28 59.6 °F 58.2 °F 29.87 in SSW 10.2 mph 16.1 mph 95 % 0.00 in
21:33 59.5 °F 58.1 °F 29.87 in South 9.1 mph 17.3 mph 95 % 0.00 in
21:38 59.5 °F 58.1 °F 29.87 in SW 4.5 mph 7.0 mph 95 % 0.00 in
21:43 59.4 °F 58.0 °F 29.87 in SSW 6.7 mph 13.8 mph 95 % 0.00 in
21:48 59.4 °F 58.0 °F 29.87 in SW 9.6 mph 19.6 mph 95 % 0.00 in
21:53 59.4 °F 58.0 °F 29.86 in SSE 8.2 mph 16.1 mph 95 % 0.00 in
21:58 59.3 °F 57.9 °F 29.86 in SSW 10.0 mph 17.3 mph 95 % 0.01 in
22:03 59.3 °F 57.9 °F 29.87 in WSW 10.5 mph 15.0 mph 95 % 0.02 in
22:08 59.3 °F 57.9 °F 29.87 in SSW 5.2 mph 9.2 mph 95 % 0.03 in
22:13 59.2 °F 57.8 °F 29.86 in SSW 2.6 mph 6.9 mph 95 % 0.03 in
22:18 59.1 °F 57.7 °F 29.87 in West 3.6 mph 10.4 mph 95 % 0.03 in
22:23 59.0 °F 57.6 °F 29.86 in South 5.4 mph 9.2 mph 95 % 0.03 in
22:28 58.9 °F 57.5 °F 29.85 in SSW 5.5 mph 6.9 mph 95 % 0.03 in
22:33 58.8 °F 57.4 °F 29.85 in SW 1.8 mph 4.0 mph 95 % 0.03 in
22:38 58.7 °F 57.3 °F 29.86 in SW 4.5 mph 9.2 mph 95 % 0.03 in
22:43 58.6 °F 57.2 °F 29.85 in South 2.4 mph 6.9 mph 95 % 0.03 in
22:49 58.5 °F 57.1 °F 29.85 in South 3.8 mph 5.8 mph 95 % 0.03 in
22:54 58.4 °F 57.0 °F 29.85 in SSW 2.5 mph 5.8 mph 95 % 0.03 in
22:59 58.3 °F 56.9 °F 29.86 in SW 5.9 mph 9.2 mph 95 % 0.02 in
23:04 58.2 °F 56.8 °F 29.85 in SSW 5.0 mph 6.9 mph 95 % 0.01 in
23:09 58.2 °F 56.8 °F 29.84 in SSW 5.2 mph 9.2 mph 95 % 0.00 in
23:14 58.2 °F 57.1 °F 29.84 in SSW 4.3 mph 8.1 mph 96 % 0.01 in
23:19 58.1 °F 57.0 °F 29.83 in South 3.2 mph 6.9 mph 96 % 0.01 in
23:24 58.1 °F 57.0 °F 29.83 in South 2.6 mph 6.9 mph 96 % 0.01 in
23:29 58.1 °F 57.0 °F 29.82 in SSW 5.3 mph 11.5 mph 96 % 0.01 in
23:34 58.0 °F 56.9 °F 29.81 in South 3.0 mph 7.0 mph 96 % 0.01 in
23:39 58.0 °F 56.9 °F 29.81 in SSW 2.7 mph 4.0 mph 96 % 0.01 in
23:44 58.0 °F 56.9 °F 29.81 in SW 5.1 mph 8.1 mph 96 % 0.01 in
23:49 58.0 °F 56.9 °F 29.81 in SSW 5.9 mph 10.0 mph 96 % 0.01 in
23:54 57.9 °F 56.8 °F 29.81 in SW 3.5 mph 5.8 mph 96 % 0.01 in
23:59 57.9 °F 56.8 °F 29.80 in South 4.1 mph 8.1 mph 96 % 0.01 in
Crab Meadow Weather
Compliments of Weather Underground - 2.75 mb

Script developed by  Jim McMurry - jmcmurry@mwt.net Adapted for the template by  Wim van der Kuil - Leuven-Template.eu

Recycling: A used aluminum can is recycled and back on the grocery shelf as a new can, in as little as 60 days.